Time;durP1;ratioP1;P1;durP2;ratioP2;P2;SDS_P1;SDS_P2;PMS_P1;PMS_P2;Temp;Humidity;BMP_temperature;BMP_pressure;BME280_temperature;BME280_humidity;BME280_pressure;Samples;Min_cycle;Max_cycle;Signal;HPM_P1;HPM_P2
2023/01/02 00:00:23;;;;;;;7.78;2.03;;;14.60;84.80;;;;;;5006538;28;20034;-67
2023/01/02 00:02:49;;;;;;;7.18;2.60;;;14.60;85.00;;;;;;4990225;28;20030;-67
2023/01/02 00:05:15;;;;;;;7.78;3.30;;;14.60;85.30;;;;;;5009081;28;20498;-67
2023/01/02 00:07:41;;;;;;;9.50;2.42;;;14.50;85.40;;;;;;4994175;28;20603;-66
2023/01/02 00:10:06;;;;;;;4.32;2.60;;;14.50;85.70;;;;;;4995352;28;20041;-67
2023/01/02 00:12:32;;;;;;;8.30;2.78;;;14.50;85.90;;;;;;5013436;28;20052;-67
2023/01/02 00:14:58;;;;;;;6.35;2.45;;;14.50;86.10;;;;;;4991024;28;20501;-67
2023/01/02 00:17:24;;;;;;;10.23;2.58;;;14.50;86.30;;;;;;5011674;28;20049;-67
2023/01/02 00:19:50;;;;;;;8.18;2.40;;;14.50;86.30;;;;;;5005170;28;20029;-66
2023/01/02 00:22:15;;;;;;;8.18;2.55;;;14.50;86.80;;;;;;5009474;28;20021;-66
2023/01/02 00:24:41;;;;;;;6.55;2.58;;;14.40;86.60;;;;;;5006376;28;20036;-67
2023/01/02 00:27:07;;;;;;;5.68;2.53;;;14.40;86.90;;;;;;5012598;28;20482;-65
2023/01/02 00:29:33;;;;;;;7.18;2.63;;;14.40;87.10;;;;;;4995634;28;20118;-66
2023/01/02 00:31:59;;;;;;;5.47;2.80;;;14.40;87.30;;;;;;5012483;28;20022;-66
2023/01/02 00:34:25;;;;;;;4.90;2.50;;;14.40;87.10;;;;;;5014300;28;20057;-66
2023/01/02 00:36:51;;;;;;;6.80;2.63;;;14.30;87.30;;;;;;5006859;28;20026;-66
2023/01/02 00:39:17;;;;;;;7.60;2.70;;;14.30;87.80;;;;;;5009234;28;20030;-66
2023/01/02 00:41:43;;;;;;;8.63;2.70;;;14.30;87.90;;;;;;5009340;28;20131;-66
2023/01/02 00:44:09;;;;;;;7.15;3.22;;;14.30;88.00;;;;;;5003960;28;20919;-67
2023/01/02 00:46:35;;;;;;;8.07;2.45;;;14.30;88.00;;;;;;5013822;28;20033;-65
2023/01/02 00:49:00;;;;;;;6.25;2.63;;;14.30;88.00;;;;;;5005843;28;20474;-67
2023/01/02 00:51:26;;;;;;;5.53;2.50;;;14.30;88.10;;;;;;5018726;28;20033;-67
2023/01/02 00:53:52;;;;;;;4.80;2.30;;;14.30;88.20;;;;;;5019155;28;20029;-66
2023/01/02 00:56:18;;;;;;;8.82;2.65;;;14.20;88.10;;;;;;5017296;28;20557;-66
2023/01/02 00:58:43;;;;;;;7.35;2.70;;;14.20;88.20;;;;;;5015867;28;20068;-67
2023/01/02 01:01:09;;;;;;;6.70;2.47;;;14.20;88.00;;;;;;5016511;28;20026;-66
2023/01/02 01:03:35;;;;;;;8.23;2.88;;;14.30;88.00;;;;;;5013416;28;20076;-66
2023/01/02 01:06:09;;;;;;;8.40;2.75;;;14.30;87.80;;;;;;5010915;28;20132;-66
2023/01/02 01:08:36;;;;;;;8.63;2.83;;;14.30;87.60;;;;;;5009608;28;20025;-67
2023/01/02 01:11:20;;;;;;;6.82;2.30;;;14.30;87.50;;;;;;5012666;28;20040;-67
2023/01/02 01:13:46;;;;;;;7.40;3.03;;;14.20;87.20;;;;;;5017585;28;20450;-66
2023/01/02 01:16:15;;;;;;;6.13;2.63;;;14.20;87.30;;;;;;5015536;28;20079;-67
2023/01/02 01:18:42;;;;;;;11.05;3.10;;;14.10;87.60;;;;;;5015896;28;20851;-66
2023/01/02 01:21:13;;;;;;;11.98;2.50;;;14.20;87.50;;;;;;5010538;28;20025;-66
2023/01/02 01:23:39;;;;;;;5.75;2.15;;;14.10;87.40;;;;;;5015191;28;20036;-66
2023/01/02 01:26:07;;;;;;;10.07;2.55;;;14.10;87.80;;;;;;5009227;28;20041;-66
2023/01/02 01:28:33;;;;;;;11.30;2.83;;;14.10;87.50;;;;;;5014188;28;20125;-67
2023/01/02 01:31:08;;;;;;;7.68;2.65;;;14.20;87.00;;;;;;5007998;28;20501;-65
2023/01/02 01:33:34;;;;;;;6.90;2.75;;;14.20;87.30;;;;;;5014555;28;20037;-67
2023/01/02 01:36:15;;;;;;;5.55;2.45;;;14.20;86.80;;;;;;5018399;28;20051;-66
2023/01/02 01:38:42;;;;;;;8.88;2.70;;;14.20;86.30;;;;;;5013081;28;20044;-67
2023/01/02 01:41:10;;;;;;;9.32;3.00;;;14.20;86.40;;;;;;5015999;28;20124;-67
2023/01/02 01:44:23;;;;;;;7.03;2.50;;;14.20;85.80;;;;;;5011734;28;20033;-67
2023/01/02 01:46:49;;;;;;;10.05;2.35;;;14.30;85.70;;;;;;4952413;28;20037;-66
2023/01/02 01:49:27;;;;;;;7.15;2.35;;;14.30;85.90;;;;;;5009876;28;20423;-66
2023/01/02 01:52:03;;;;;;;7.43;2.70;;;14.30;85.50;;;;;;5014261;28;20032;-66
2023/01/02 01:54:45;;;;;;;6.57;2.40;;;14.30;85.20;;;;;;5011453;28;20666;-66
2023/01/02 01:57:28;;;;;;;8.80;2.45;;;14.30;85.40;;;;;;5017045;28;20021;-66
2023/01/02 01:59:56;;;;;;;10.57;2.85;;;14.30;85.30;;;;;;5016269;28;20030;-66
2023/01/02 02:02:25;;;;;;;5.53;2.65;;;14.30;85.50;;;;;;5012302;28;20398;-66
2023/01/02 02:04:51;;;;;;;7.50;2.53;;;14.30;85.20;;;;;;5012387;28;20030;-66
2023/01/02 02:07:17;;;;;;;11.90;3.00;;;14.30;84.80;;;;;;5012991;28;20124;-66
2023/01/02 02:10:00;;;;;;;9.70;3.25;;;14.30;84.50;;;;;;5009354;28;20040;-66
2023/01/02 02:12:27;;;;;;;10.85;2.90;;;14.40;84.50;;;;;;5010789;28;20037;-66
2023/01/02 02:14:53;;;;;;;4.82;2.60;;;14.40;84.20;;;;;;5009741;28;20088;-66
2023/01/02 02:17:21;;;;;;;3.70;2.72;;;14.40;84.60;;;;;;5016066;28;20044;-66
2023/01/02 02:19:59;;;;;;;10.50;2.83;;;14.40;84.40;;;;;;5018390;28;20052;-66
2023/01/02 02:22:55;;;;;;;8.18;2.40;;;14.40;84.00;;;;;;5015082;28;20041;-67
2023/01/02 02:25:39;;;;;;;9.50;2.85;;;14.40;84.00;;;;;;5014087;28;20219;-66
2023/01/02 02:28:23;;;;;;;6.70;2.85;;;14.40;84.00;;;;;;5009390;28;20139;-66
2023/01/02 02:31:02;;;;;;;5.97;2.42;;;14.40;83.90;;;;;;5012191;28;20053;-66
2023/01/02 02:33:49;;;;;;;10.73;2.90;;;14.50;83.70;;;;;;5009646;28;20151;-66
2023/01/02 02:36:27;;;;;;;8.63;2.83;;;14.50;83.40;;;;;;5011733;28;20088;-66
2023/01/02 02:39:10;;;;;;;6.07;2.60;;;14.50;83.90;;;;;;5015265;28;20025;-66
2023/01/02 02:41:43;;;;;;;5.38;2.80;;;14.50;83.50;;;;;;5012897;28;20772;-67
2023/01/02 02:44:15;;;;;;;7.90;2.95;;;14.60;83.50;;;;;;5011261;28;20037;-66
2023/01/02 02:47:20;;;;;;;7.63;2.90;;;14.60;83.40;;;;;;5012019;28;20746;-66
2023/01/02 02:50:07;;;;;;;8.02;2.95;;;14.60;83.30;;;;;;5003534;28;20041;-67
2023/01/02 02:53:00;;;;;;;12.48;3.00;;;14.60;83.10;;;;;;5010217;28;20075;-66
2023/01/02 02:55:34;;;;;;;6.55;2.78;;;14.60;82.60;;;;;;5014513;28;20048;-66
2023/01/02 02:58:00;;;;;;;7.47;2.90;;;14.70;82.50;;;;;;5009603;28;20025;-66
2023/01/02 03:00:26;;;;;;;7.20;3.00;;;14.80;82.00;;;;;;5014456;28;20037;-66
2023/01/02 03:02:52;;;;;;;5.40;2.65;;;14.80;81.80;;;;;;5014052;28;20407;-66
2023/01/02 03:05:36;;;;;;;5.88;2.50;;;14.70;82.10;;;;;;5014323;28;20036;-67
2023/01/02 03:08:47;;;;;;;8.23;3.00;;;14.70;81.90;;;;;;5012121;28;20095;-66
2023/01/02 03:11:14;;;;;;;6.28;3.15;;;14.60;82.30;;;;;;4940531;28;20114;-66
2023/01/02 03:13:49;;;;;;;10.05;2.83;;;14.70;82.00;;;;;;4999570;28;20041;-66
2023/01/02 03:16:29;;;;;;;4.20;2.38;;;14.70;81.80;;;;;;5011260;28;20037;-67
2023/01/02 03:19:09;;;;;;;6.45;2.88;;;14.70;81.80;;;;;;5009574;28;20512;-66
2023/01/02 03:21:45;;;;;;;5.63;2.72;;;14.70;82.10;;;;;;5013177;28;20039;-66
2023/01/02 03:24:14;;;;;;;7.63;2.70;;;14.60;82.20;;;;;;5014884;28;20033;-66
2023/01/02 03:26:48;;;;;;;9.05;2.90;;;14.60;82.30;;;;;;5016467;28;20036;-66
2023/01/02 03:29:27;;;;;;;8.80;3.58;;;14.70;82.10;;;;;;5012127;28;20076;-67
2023/01/02 03:31:55;;;;;;;6.78;3.15;;;14.60;82.90;;;;;;5011123;28;20037;-67
2023/01/02 03:34:24;;;;;;;3.90;2.83;;;14.50;83.10;;;;;;5008612;28;20439;-66
2023/01/02 03:36:57;;;;;;;5.53;2.75;;;14.40;83.20;;;;;;4993757;28;20541;-66
2023/01/02 03:39:28;;;;;;;8.38;3.60;;;14.50;82.50;;;;;;5006859;28;20030;-67
2023/01/02 03:41:53;;;;;;;7.32;3.00;;;14.60;82.70;;;;;;5012608;28;20033;-66
2023/01/02 03:44:23;;;;;;;6.82;2.75;;;14.50;82.60;;;;;;5000265;28;20760;-66
2023/01/02 03:47:02;;;;;;;3.78;2.75;;;14.60;82.40;;;;;;5010983;28;20029;-67
2023/01/02 03:49:40;;;;;;;7.80;3.33;;;14.50;82.50;;;;;;5014227;28;20038;-65
2023/01/02 03:52:06;;;;;;;7.97;3.05;;;14.50;82.70;;;;;;5007486;28;20030;-66
2023/01/02 03:54:32;;;;;;;5.43;2.78;;;14.50;82.60;;;;;;5015033;28;20037;-65
2023/01/02 03:57:40;;;;;;;6.22;2.72;;;14.40;82.70;;;;;;5006061;28;20109;-66
2023/01/02 04:00:13;;;;;;;7.55;3.17;;;14.40;82.60;;;;;;5013654;28;20405;-66
2023/01/02 04:03:15;;;;;;;6.85;3.15;;;14.40;82.80;;;;;;5008951;28;20448;-66
2023/01/02 04:05:47;;;;;;;4.78;2.83;;;14.50;82.80;;;;;;5012865;28;20032;-67
2023/01/02 04:08:24;;;;;;;6.50;2.70;;;14.50;82.60;;;;;;5016425;28;20144;-67
2023/01/02 04:10:52;;;;;;;7.53;2.75;;;14.60;82.20;;;;;;4991446;28;20148;-66
2023/01/02 04:13:31;;;;;;;5.13;3.00;;;14.60;82.20;;;;;;5013445;28;20041;-67
2023/01/02 04:15:59;;;;;;;6.13;2.70;;;14.50;82.30;;;;;;5006355;28;20176;-66
2023/01/02 04:18:34;;;;;;;4.85;2.75;;;14.50;82.30;;;;;;5011705;28;20174;-66
2023/01/02 04:21:06;;;;;;;4.95;2.50;;;14.60;82.90;;;;;;5004865;28;20040;-66
2023/01/02 04:23:40;;;;;;;5.63;2.95;;;14.50;82.00;;;;;;5010541;28;20121;-66
2023/01/02 04:26:12;;;;;;;6.22;2.72;;;14.60;81.80;;;;;;5009866;28;20451;-66
2023/01/02 04:28:38;;;;;;;6.95;3.10;;;14.60;81.60;;;;;;5009285;28;20099;-66
2023/01/02 04:31:07;;;;;;;5.28;2.70;;;14.60;82.00;;;;;;5012624;28;20124;-66
2023/01/02 04:33:38;;;;;;;3.67;2.33;;;14.60;81.30;;;;;;5012382;28;20061;-66
2023/01/02 04:36:13;;;;;;;5.13;2.78;;;14.60;81.40;;;;;;5009549;28;20095;-66
2023/01/02 04:38:41;;;;;;;6.18;2.70;;;14.70;81.10;;;;;;5007598;28;20203;-66
2023/01/02 04:41:11;;;;;;;4.78;2.40;;;14.70;81.10;;;;;;5004943;28;20026;-67
2023/01/02 04:43:36;;;;;;;6.18;2.78;;;14.70;80.90;;;;;;5008193;28;20505;-66
2023/01/02 04:46:02;;;;;;;5.35;3.22;;;14.70;80.70;;;;;;5008798;28;20029;-67
2023/01/02 04:48:28;;;;;;;4.63;2.30;;;14.70;80.90;;;;;;5014435;28;20564;-67
2023/01/02 04:50:54;;;;;;;3.20;2.33;;;14.70;80.90;;;;;;5014063;28;20695;-66
2023/01/02 04:53:20;;;;;;;4.53;2.50;;;14.70;80.70;;;;;;5010253;28;20066;-66
2023/01/02 04:55:46;;;;;;;4.43;2.30;;;14.70;80.80;;;;;;5016937;28;20159;-66
2023/01/02 04:58:11;;;;;;;3.83;2.40;;;14.70;81.40;;;;;;5006608;28;20541;-66
2023/01/02 05:00:37;;;;;;;5.05;2.65;;;14.80;80.20;;;;;;5009049;28;20041;-66
2023/01/02 05:03:04;;;;;;;6.00;2.83;;;14.90;79.80;;;;;;5007220;28;20038;-66
2023/01/02 05:05:30;;;;;;;3.78;2.17;;;14.90;79.70;;;;;;5010687;28;20029;-66
2023/01/02 05:07:59;;;;;;;3.35;2.33;;;14.90;79.80;;;;;;5008008;28;20152;-66
2023/01/02 05:10:25;;;;;;;4.20;2.17;;;15.00;79.60;;;;;;5014251;28;20086;-66
2023/01/02 05:12:50;;;;;;;5.80;3.60;;;15.00;78.90;;;;;;5014681;28;20030;-66
2023/01/02 05:15:16;;;;;;;5.30;2.55;;;15.00;79.30;;;;;;5012686;28;20040;-67
2023/01/02 05:17:42;;;;;;;4.75;2.22;;;15.00;78.50;;;;;;5007867;28;20068;-66
2023/01/02 05:20:11;;;;;;;5.55;2.40;;;15.00;78.30;;;;;;5010613;28;20054;-66
2023/01/02 05:25:23;;;;;;;4.88;2.13;;;14.90;78.70;;;;;;5013380;28;20033;-66
2023/01/02 05:27:53;;;;;;;4.03;2.28;;;14.90;79.40;;;;;;5004155;28;20853;-66
2023/01/02 05:30:21;;;;;;;3.28;2.38;;;14.80;79.30;;;;;;5014026;28;20041;-66
2023/01/02 05:32:47;;;;;;;3.97;2.05;;;14.80;79.40;;;;;;5013793;28;20141;-65
2023/01/02 05:35:13;;;;;;;6.63;2.58;;;14.80;79.40;;;;;;5013049;28;20055;-66
2023/01/02 05:37:39;;;;;;;6.75;2.40;;;14.90;78.90;;;;;;5016255;28;20119;-66
2023/01/02 05:40:05;;;;;;;7.88;2.85;;;14.90;78.50;;;;;;5009596;28;20072;-66
2023/01/02 05:42:31;;;;;;;5.88;2.70;;;14.80;79.20;;;;;;4996880;28;20120;-65
2023/01/02 05:44:57;;;;;;;4.40;2.40;;;14.80;79.00;;;;;;5012149;28;20037;-66
2023/01/02 05:47:22;;;;;;;7.95;2.10;;;14.80;78.50;;;;;;5009188;28;20037;-67
2023/01/02 05:49:48;;;;;;;5.40;2.17;;;14.90;78.50;;;;;;5013142;28;20033;-66
2023/01/02 05:52:14;;;;;;;5.75;2.20;;;14.90;78.20;;;;;;5013326;28;20603;-66
2023/01/02 05:54:40;;;;;;;6.25;2.30;;;15.00;77.60;;;;;;5015314;28;20125;-66
2023/01/02 05:57:06;;;;;;;7.03;2.67;;;15.00;77.80;;;;;;5011265;28;20030;-67
2023/01/02 05:59:32;;;;;;;6.07;2.25;;;15.00;77.90;;;;;;5012244;28;20030;-67
2023/01/02 06:01:57;;;;;;;4.97;2.30;;;15.00;78.20;;;;;;5013729;28;20034;-66
2023/01/02 06:04:23;;;;;;;6.88;2.33;;;15.00;77.80;;;;;;5011693;28;20069;-66
2023/01/02 06:06:49;;;;;;;5.55;2.25;;;15.00;77.10;;;;;;5011933;28;20354;-66
2023/01/02 06:09:16;;;;;;;5.10;1.98;;;15.00;77.60;;;;;;5010864;28;20565;-67
2023/01/02 06:11:42;;;;;;;4.57;1.98;;;15.00;77.60;;;;;;5013572;28;20437;-66
2023/01/02 06:14:09;;;;;;;3.00;1.80;;;15.00;77.50;;;;;;5019424;28;20164;-65
2023/01/02 06:16:39;;;;;;;5.55;2.20;;;15.10;77.60;;;;;;5016322;28;20029;-68
2023/01/02 06:19:05;;;;;;;5.70;2.50;;;15.10;77.40;;;;;;5010832;28;20025;-67
2023/01/02 06:21:32;;;;;;;3.88;2.53;;;15.10;77.20;;;;;;5013589;28;20030;-67
2023/01/02 06:23:57;;;;;;;7.35;3.58;;;15.20;77.20;;;;;;5018025;28;20048;-66
2023/01/02 06:26:26;;;;;;;5.32;2.20;;;15.20;76.90;;;;;;5018802;28;20601;-67
2023/01/02 06:28:54;;;;;;;5.60;2.85;;;15.20;76.50;;;;;;5014109;28;20068;-67
2023/01/02 06:31:23;;;;;;;4.70;1.80;;;15.20;76.90;;;;;;5013124;28;20136;-65
2023/01/02 06:34:00;;;;;;;5.30;2.17;;;15.10;76.30;;;;;;5007037;28;20025;-67
2023/01/02 06:36:29;;;;;;;4.00;2.03;;;15.10;76.80;;;;;;5014315;28;20057;-66
2023/01/02 06:38:56;;;;;;;3.70;1.98;;;15.10;76.70;;;;;;5013707;28;20038;-66
2023/01/02 06:41:21;;;;;;;5.50;2.55;;;15.20;76.90;;;;;;5015361;28;20561;-67
2023/01/02 06:43:49;;;;;;;6.82;2.53;;;15.20;76.60;;;;;;5015692;28;20041;-66
2023/01/02 06:46:20;;;;;;;5.30;2.50;;;15.10;76.50;;;;;;5012939;28;20493;-66
2023/01/02 06:48:46;;;;;;;3.85;2.10;;;15.20;77.20;;;;;;5013403;28;20042;-66
2023/01/02 06:51:22;;;;;;;6.32;2.35;;;15.10;76.50;;;;;;5009902;28;20022;-66
2023/01/02 06:53:48;;;;;;;5.22;2.00;;;15.10;76.80;;;;;;5011606;28;20041;-67
2023/01/02 06:56:19;;;;;;;6.22;2.83;;;15.10;77.30;;;;;;5014440;28;20033;-67
2023/01/02 06:58:45;;;;;;;5.20;2.33;;;15.00;77.10;;;;;;5010504;28;20454;-67
2023/01/02 07:01:19;;;;;;;4.25;1.95;;;15.00;76.70;;;;;;5013811;28;20083;-66
2023/01/02 07:03:45;;;;;;;10.38;2.92;;;15.00;76.80;;;;;;5015263;28;20038;-67
2023/01/02 07:06:21;;;;;;;5.30;1.88;;;15.00;77.00;;;;;;5011122;28;20030;-67
2023/01/02 07:08:47;;;;;;;6.90;2.70;;;14.90;77.30;;;;;;5010339;28;20041;-66
2023/01/02 07:11:21;;;;;;;10.75;2.45;;;14.90;77.70;;;;;;5011165;28;20072;-66
2023/01/02 07:13:49;;;;;;;3.70;1.90;;;14.90;77.20;;;;;;5015370;28;20036;-66
2023/01/02 07:16:17;;;;;;;4.15;1.95;;;14.90;77.30;;;;;;5007343;28;20033;-66
2023/01/02 07:18:44;;;;;;;4.40;2.17;;;14.90;77.30;;;;;;5016989;28;20030;-66
2023/01/02 07:21:11;;;;;;;5.75;2.22;;;14.90;76.50;;;;;;4997830;28;20614;-66
2023/01/02 07:23:37;;;;;;;8.60;2.75;;;15.00;76.80;;;;;;5012050;28;20021;-66
2023/01/02 07:26:05;;;;;;;5.72;1.90;;;15.00;76.90;;;;;;5012366;28;20033;-66
2023/01/02 07:28:32;;;;;;;10.35;2.33;;;15.10;77.20;;;;;;5011293;28;20057;-66
2023/01/02 07:31:00;;;;;;;4.50;2.22;;;15.10;77.40;;;;;;5009445;28;20048;-66
2023/01/02 07:33:30;;;;;;;6.68;2.13;;;15.20;78.10;;;;;;5011479;28;20048;-66
2023/01/02 07:36:01;;;;;;;5.05;2.58;;;15.20;77.40;;;;;;5007981;28;20021;-66
2023/01/02 07:38:27;;;;;;;5.30;2.17;;;15.20;76.50;;;;;;5014380;28;20033;-65
2023/01/02 07:40:53;;;;;;;3.22;1.65;;;15.30;77.80;;;;;;5016129;28;20025;-66
2023/01/02 07:43:20;;;;;;;4.63;1.90;;;15.40;75.40;;;;;;5013771;28;20116;-67
2023/01/02 07:45:45;;;;;;;10.68;2.05;;;15.30;75.90;;;;;;5011529;28;20039;-67
2023/01/02 07:48:11;;;;;;;2.80;1.50;;;15.30;75.80;;;;;;5011554;28;20028;-66
2023/01/02 07:50:37;;;;;;;6.70;2.03;;;15.20;76.20;;;;;;5011769;28;20037;-66
2023/01/02 07:53:03;;;;;;;5.72;2.08;;;15.20;76.50;;;;;;5010584;28;20076;-66
2023/01/02 07:55:28;;;;;;;4.28;1.77;;;15.20;76.00;;;;;;5011333;28;20060;-66
2023/01/02 07:57:54;;;;;;;3.15;2.00;;;15.20;75.60;;;;;;5008107;28;20026;-67
2023/01/02 08:00:20;;;;;;;3.10;1.73;;;15.30;75.10;;;;;;5017500;28;20085;-66
2023/01/02 08:02:48;;;;;;;5.13;2.00;;;15.40;75.10;;;;;;5014836;28;20443;-66
2023/01/02 08:05:15;;;;;;;3.65;2.15;;;15.40;75.80;;;;;;5017963;28;20814;-67
2023/01/02 08:07:43;;;;;;;3.45;1.70;;;15.40;75.00;;;;;;5011057;28;20033;-67
2023/01/02 08:10:10;;;;;;;4.68;1.65;;;15.30;75.00;;;;;;5009276;28;20083;-66
2023/01/02 08:12:36;;;;;;;7.75;1.67;;;15.30;74.60;;;;;;5016026;28;20033;-66
2023/01/02 08:15:02;;;;;;;6.13;2.25;;;15.40;75.10;;;;;;5014329;28;20033;-66
2023/01/02 08:17:29;;;;;;;6.78;2.10;;;15.30;74.50;;;;;;5004798;28;20049;-66
2023/01/02 08:19:56;;;;;;;5.05;1.70;;;15.30;74.20;;;;;;5012966;28;20022;-66
2023/01/02 08:22:22;;;;;;;6.13;1.88;;;15.30;74.90;;;;;;5011172;28;20140;-66
2023/01/02 08:24:47;;;;;;;7.03;2.03;;;15.30;74.70;;;;;;5014038;28;20155;-66
2023/01/02 08:27:13;;;;;;;6.18;2.00;;;15.20;75.00;;;;;;5010384;28;20469;-66
2023/01/02 08:29:40;;;;;;;8.73;1.88;;;15.20;74.70;;;;;;5009005;28;20564;-67
2023/01/02 08:32:06;;;;;;;6.70;1.83;;;15.20;75.00;;;;;;5007706;28;20033;-65
2023/01/02 08:34:33;;;;;;;2.47;1.90;;;15.20;75.10;;;;;;5011855;28;20680;-66
2023/01/02 08:36:59;;;;;;;3.25;1.63;;;15.20;74.70;;;;;;4988997;28;20029;-67
2023/01/02 08:39:25;;;;;;;5.07;1.30;;;15.30;73.50;;;;;;5009077;28;20137;-66
2023/01/02 08:41:51;;;;;;;2.67;1.50;;;15.30;74.50;;;;;;5005011;28;20117;-66
2023/01/02 08:44:17;;;;;;;5.63;2.35;;;15.40;74.20;;;;;;5012459;28;20022;-67
2023/01/02 08:46:43;;;;;;;5.35;2.38;;;15.40;74.20;;;;;;5012221;28;20033;-67
2023/01/02 08:49:09;;;;;;;4.50;1.65;;;15.30;74.20;;;;;;5008296;28;20029;-66
2023/01/02 08:51:35;;;;;;;4.00;1.45;;;15.30;73.80;;;;;;5011634;28;20037;-66
2023/01/02 08:54:01;;;;;;;4.03;1.83;;;15.30;74.50;;;;;;5016738;28;20033;-66
2023/01/02 08:56:30;;;;;;;3.10;1.65;;;15.30;74.10;;;;;;5013640;28;20045;-66
2023/01/02 08:58:57;;;;;;;5.65;1.92;;;15.30;74.40;;;;;;5010496;28;20447;-66
2023/01/02 09:01:25;;;;;;;7.07;2.47;;;15.30;73.60;;;;;;5002662;28;20033;-66
2023/01/02 09:03:51;;;;;;;6.97;1.75;;;15.30;74.20;;;;;;5008399;28;20025;-66
2023/01/02 09:06:18;;;;;;;4.22;1.80;;;15.30;74.00;;;;;;5016818;28;20813;-67
2023/01/02 09:08:44;;;;;;;2.63;1.75;;;15.40;74.60;;;;;;5012041;28;20075;-66
2023/01/02 09:11:19;;;;;;;5.25;2.15;;;15.40;74.10;;;;;;5016715;28;20885;-67
2023/01/02 09:13:45;;;;;;;6.70;1.98;;;15.40;74.20;;;;;;5014239;28;20120;-67
2023/01/02 09:16:11;;;;;;;6.65;2.00;;;15.50;73.60;;;;;;5013057;28;20038;-66
2023/01/02 09:18:38;;;;;;;7.97;1.70;;;15.50;73.90;;;;;;5013117;28;20033;-67
2023/01/02 09:21:04;;;;;;;2.88;1.45;;;15.60;72.80;;;;;;5013438;28;20025;-66
2023/01/02 09:23:31;;;;;;;4.57;1.70;;;15.70;72.60;;;;;;5017212;28;20036;-67
2023/01/02 09:25:59;;;;;;;3.88;1.45;;;15.70;72.70;;;;;;5014506;28;20912;-67
2023/01/02 09:28:25;;;;;;;6.47;1.80;;;15.70;73.00;;;;;;5019846;28;20038;-66
2023/01/02 09:30:51;;;;;;;6.30;2.03;;;15.70;72.50;;;;;;5012175;28;20030;-67
2023/01/02 09:33:16;;;;;;;5.53;1.77;;;15.80;72.00;;;;;;5017071;28;20041;-67
2023/01/02 09:35:42;;;;;;;3.38;1.50;;;15.90;71.80;;;;;;5015405;28;20576;-66
2023/01/02 09:38:08;;;;;;;3.63;1.63;;;15.90;71.80;;;;;;5012664;28;20137;-66
2023/01/02 09:40:35;;;;;;;5.28;1.92;;;15.90;71.80;;;;;;5015597;28;20112;-66
2023/01/02 09:43:02;;;;;;;5.30;1.52;;;15.90;71.90;;;;;;5011928;28;20128;-67
2023/01/02 09:45:28;;;;;;;5.10;1.50;;;16.00;71.80;;;;;;5013856;28;20794;-66
2023/01/02 09:47:57;;;;;;;6.20;1.65;;;15.90;72.00;;;;;;5016602;28;20099;-66
2023/01/02 09:50:29;;;;;;;4.50;1.63;;;15.90;72.10;;;;;;5014542;28;20088;-66
2023/01/02 09:52:58;;;;;;;2.90;1.58;;;15.90;72.20;;;;;;5017243;28;20033;-67
2023/01/02 09:55:39;;;;;;;4.80;1.83;;;15.90;71.20;;;;;;5019290;28;20045;-66
2023/01/02 09:58:14;;;;;;;3.05;1.90;;;15.90;71.00;;;;;;5014359;28;20096;-66
2023/01/02 10:00:46;;;;;;;3.95;1.70;;;15.90;71.30;;;;;;5012262;28;20054;-66
2023/01/02 10:03:18;;;;;;;2.83;1.70;;;15.90;71.50;;;;;;5013531;28;20120;-66
2023/01/02 10:05:43;;;;;;;3.67;1.70;;;15.90;71.50;;;;;;5011300;28;20030;-66
2023/01/02 10:08:27;;;;;;;3.75;1.55;;;15.90;71.10;;;;;;5016607;28;20103;-66
2023/01/02 10:11:28;;;;;;;5.18;1.83;;;16.00;70.80;;;;;;5015129;28;20037;-66
2023/01/02 10:14:15;;;;;;;5.22;1.80;;;15.90;71.40;;;;;;5001520;28;20170;-66
2023/01/02 10:16:45;;;;;;;8.05;2.00;;;15.90;70.90;;;;;;5014990;28;20442;-65
2023/01/02 10:19:42;;;;;;;7.15;1.83;;;15.90;71.30;;;;;;5017279;28;20479;-66
2023/01/02 10:22:12;;;;;;;6.55;1.60;;;16.00;71.10;;;;;;5004493;28;20029;-65
2023/01/02 10:25:01;;;;;;;4.40;1.83;;;16.10;70.80;;;;;;5017003;28;20060;-65
2023/01/02 10:27:38;;;;;;;6.25;1.65;;;16.10;70.60;;;;;;5013329;28;20037;-65
2023/01/02 10:30:18;;;;;;;4.10;2.13;;;16.10;69.80;;;;;;5004868;28;20490;-65
2023/01/02 10:32:53;;;;;;;8.13;1.70;;;16.00;70.20;;;;;;5018228;28;20026;-65
2023/01/02 10:35:37;;;;;;;1.80;1.20;;;16.00;71.00;;;;;;5013026;28;20124;-64
2023/01/02 10:38:04;;;;;;;10.50;2.13;;;15.90;71.80;;;;;;5012391;28;20113;-65
2023/01/02 10:40:32;;;;;;;5.60;1.63;;;15.90;71.10;;;;;;5014522;28;20083;-72
2023/01/02 10:42:59;;;;;;;4.60;1.75;;;15.90;71.00;;;;;;5014033;28;20153;-67
2023/01/02 10:45:24;;;;;;;5.68;1.50;;;15.90;71.40;;;;;;5010307;28;20034;-65
2023/01/02 10:47:50;;;;;;;7.90;1.67;;;15.90;70.60;;;;;;5013827;28;20924;-66
2023/01/02 10:50:28;;;;;;;6.30;1.88;;;15.90;71.60;;;;;;5008443;28;20026;-66
2023/01/02 10:53:08;;;;;;;5.70;1.50;;;15.90;71.50;;;;;;5016544;28;20033;-65
2023/01/02 10:55:39;;;;;;;4.93;1.88;;;16.00;71.80;;;;;;5014609;28;20037;-65
2023/01/02 10:58:16;;;;;;;4.55;1.77;;;16.00;71.20;;;;;;5011993;28;20759;-66
2023/01/02 11:00:41;;;;;;;;;;;16.00;72.70;;;;;;5016178;28;20032;-65
2023/01/02 11:03:14;;;;;;;9.37;1.60;;;15.90;72.70;;;;;;5009601;28;19920;-65
2023/01/02 11:05:48;;;;;;;7.43;1.65;;;15.90;74.30;;;;;;4995694;28;20029;-65
2023/01/02 11:08:17;;;;;;;3.85;1.70;;;15.80;73.70;;;;;;5013833;28;20660;-66
2023/01/02 11:10:43;;;;;;;4.97;1.77;;;15.70;74.40;;;;;;5015148;28;20814;-65
2023/01/02 11:13:14;;;;;;;7.97;2.15;;;15.70;74.30;;;;;;5008179;28;20034;-65
2023/01/02 11:16:03;;;;;;;3.55;1.88;;;15.80;76.20;;;;;;5019530;28;20028;-65
2023/01/02 11:18:33;;;;;;;4.97;2.20;;;15.70;75.70;;;;;;5006384;28;20043;-65
2023/01/02 11:21:05;;;;;;;4.60;2.13;;;15.70;75.50;;;;;;5009857;28;20090;-65
2023/01/02 11:23:38;;;;;;;6.40;1.70;;;15.60;75.60;;;;;;5015804;28;20091;-73
2023/01/02 11:26:09;;;;;;;10.43;2.88;;;15.60;75.40;;;;;;5014994;28;20035;-66
2023/01/02 11:28:39;;;;;;;4.22;1.90;;;15.60;75.40;;;;;;5015601;28;20079;-66
2023/01/02 11:31:09;;;;;;;5.72;2.10;;;15.70;74.90;;;;;;5014165;28;20466;-67
2023/01/02 11:33:36;;;;;;;4.22;1.58;;;15.70;74.80;;;;;;4989096;28;20029;-66
2023/01/02 11:36:02;;;;;;;5.55;1.67;;;15.80;74.80;;;;;;5010806;28;20140;-66
2023/01/02 11:38:42;;;;;;;8.48;2.25;;;15.90;74.60;;;;;;5011817;28;20108;-65
2023/01/02 11:41:21;;;;;;;8.10;2.65;;;15.80;73.50;;;;;;5010724;28;20033;-65
2023/01/02 11:43:56;;;;;;;4.97;1.88;;;15.80;75.30;;;;;;5015897;28;20033;-65
2023/01/02 11:46:27;;;;;;;8.25;2.00;;;15.80;75.30;;;;;;5011513;28;20037;-65
2023/01/02 11:49:02;;;;;;;4.80;1.83;;;15.60;75.00;;;;;;5012556;28;21055;-65
2023/01/02 11:51:31;;;;;;;11.23;2.38;;;15.60;75.00;;;;;;5003387;28;20037;-65
2023/01/02 11:54:00;;;;;;;3.45;1.75;;;15.60;74.30;;;;;;5007546;28;20065;-65
2023/01/02 11:56:32;;;;;;;8.73;1.88;;;15.50;74.40;;;;;;5007471;28;20616;-65
2023/01/02 11:59:27;;;;;;;7.15;1.90;;;15.50;74.30;;;;;;5014228;28;20030;-65
2023/01/02 12:02:21;;;;;;;5.68;2.05;;;15.50;75.30;;;;;;5013994;28;20034;-65
2023/01/02 12:04:48;;;;;;;7.03;2.53;;;15.40;74.00;;;;;;4992421;28;20502;-65
2023/01/02 12:07:22;;;;;;;5.15;1.63;;;15.60;75.10;;;;;;5010943;28;20026;-65
2023/01/02 12:10:04;;;;;;;3.55;1.70;;;15.60;73.90;;;;;;5008873;28;20025;-65
2023/01/02 12:12:48;;;;;;;7.30;1.63;;;15.60;74.00;;;;;;4997146;28;20029;-65
2023/01/02 12:15:35;;;;;;;7.72;2.08;;;15.60;74.10;;;;;;5003365;28;20132;-65
2023/01/02 12:18:20;;;;;;;4.97;1.80;;;15.70;74.00;;;;;;4994865;28;20501;-65
2023/01/02 12:20:56;;;;;;;7.63;1.80;;;15.70;74.20;;;;;;5012218;28;20049;-65
2023/01/02 12:24:00;;;;;;;6.90;2.22;;;15.70;73.80;;;;;;5012881;28;20026;-65
2023/01/02 12:26:55;;;;;;;6.50;1.90;;;15.60;73.60;;;;;;5017248;28;20402;-65
2023/01/02 12:29:30;;;;;;;4.80;2.10;;;15.50;74.70;;;;;;5010069;28;20789;-65
2023/01/02 12:32:02;;;;;;;;;;;15.50;74.30;;;;;;5010322;28;20033;-65
2023/01/02 12:34:43;;;;;;;6.18;1.70;;;15.40;73.70;;;;;;5012388;28;19916;-65
2023/01/02 12:37:27;;;;;;;6.47;2.03;;;15.40;74.50;;;;;;5012731;28;20541;-65
2023/01/02 12:40:05;;;;;;;8.23;2.10;;;15.30;73.90;;;;;;5015017;28;20788;-65
2023/01/02 12:42:52;;;;;;;7.38;1.80;;;15.30;74.50;;;;;;5016680;28;20030;-65
2023/01/02 12:45:30;;;;;;;7.88;2.03;;;15.30;75.30;;;;;;5015981;28;20038;-65
2023/01/02 12:48:20;;;;;;;9.93;2.35;;;15.40;75.00;;;;;;5010280;28;20044;-65
2023/01/02 12:50:45;;;;;;;6.20;1.63;;;15.40;75.30;;;;;;5004908;28;20042;-65
2023/01/02 12:53:56;;;;;;;8.35;2.00;;;15.40;74.10;;;;;;5007700;28;20037;-65
2023/01/02 12:56:47;;;;;;;5.13;1.70;;;15.40;74.80;;;;;;5000793;28;20041;-65
2023/01/02 12:59:19;;;;;;;4.55;2.03;;;15.40;74.00;;;;;;5006497;28;20541;-65
2023/01/02 13:01:48;;;;;;;5.40;1.55;;;15.50;74.70;;;;;;5008214;28;20045;-65
2023/01/02 13:04:22;;;;;;;9.10;4.38;;;15.50;74.00;;;;;;5000905;28;20393;-65
2023/01/02 13:07:08;;;;;;;9.10;2.80;;;15.60;74.70;;;;;;4992516;28;20121;-65
2023/01/02 13:09:39;;;;;;;9.00;2.47;;;15.50;74.50;;;;;;5011675;28;20122;-65